Terminal Aerodrome Forecast
Issued by NWS Topeka, KS

Home | Current Version | Previous Version | Text Only | Print | Product List | Glossary Off
Versions: 1 2 3 4 5 6 7 8 9 10 11 12 13 14 15 16 17 18 19 20 21

442
FTUS43 KTOP 180533
TAFTOP
TAF
KTOP 180533Z 1806/1906 00000KT 3SM BR FEW250
      TEMPO 1806/1810 1/2SM FG
     FM181000 18002KT 5SM BR BKN200
     FM181400 18006KT P6SM SCT200
     FM190400 17004KT P6SM SCT045=

USA.gov is the U.S. government's official web portal to all federal, state and local government web resources and services.